sensor_id;sensor_type;location;lat;lon;timestamp;temperature;humidity
73683;DHT22;61982;48.548;12.182;2022-07-12T00:01:04;15.70;79.80
73683;DHT22;61982;48.548;12.182;2022-07-12T00:03:33;15.70;79.40
73683;DHT22;61982;48.548;12.182;2022-07-12T00:06:01;15.70;79.60
73683;DHT22;61982;48.548;12.182;2022-07-12T00:08:29;15.70;79.70
73683;DHT22;61982;48.548;12.182;2022-07-12T00:10:56;15.80;79.80
73683;DHT22;61982;48.548;12.182;2022-07-12T00:13:24;15.70;79.60
73683;DHT22;61982;48.548;12.182;2022-07-12T00:15:52;15.80;79.70
73683;DHT22;61982;48.548;12.182;2022-07-12T00:18:19;15.80;79.80
73683;DHT22;61982;48.548;12.182;2022-07-12T00:20:47;15.80;79.70
73683;DHT22;61982;48.548;12.182;2022-07-12T00:23:15;15.80;79.60
73683;DHT22;61982;48.548;12.182;2022-07-12T00:25:43;15.70;79.60
73683;DHT22;61982;48.548;12.182;2022-07-12T00:28:10;15.70;79.70
73683;DHT22;61982;48.548;12.182;2022-07-12T00:30:38;15.70;79.80
73683;DHT22;61982;48.548;12.182;2022-07-12T00:33:06;15.70;79.80
73683;DHT22;61982;48.548;12.182;2022-07-12T00:35:33;15.70;80.10
73683;DHT22;61982;48.548;12.182;2022-07-12T00:38:01;15.70;80.40
73683;DHT22;61982;48.548;12.182;2022-07-12T00:40:28;15.70;80.90
73683;DHT22;61982;48.548;12.182;2022-07-12T00:42:56;15.70;80.60
73683;DHT22;61982;48.548;12.182;2022-07-12T00:45:23;15.70;80.90
73683;DHT22;61982;48.548;12.182;2022-07-12T00:47:52;15.70;81.30
73683;DHT22;61982;48.548;12.182;2022-07-12T00:50:22;15.70;81.50
73683;DHT22;61982;48.548;12.182;2022-07-12T00:52:51;15.70;81.40
73683;DHT22;61982;48.548;12.182;2022-07-12T00:55:21;15.60;81.30
73683;DHT22;61982;48.548;12.182;2022-07-12T00:57:50;15.60;81.30
73683;DHT22;61982;48.548;12.182;2022-07-12T01:00:23;15.60;81.70
73683;DHT22;61982;48.548;12.182;2022-07-12T01:03:00;15.60;82.20
73683;DHT22;61982;48.548;12.182;2022-07-12T01:05:29;15.50;82.00
73683;DHT22;61982;48.548;12.182;2022-07-12T01:07:57;15.50;82.50
73683;DHT22;61982;48.548;12.182;2022-07-12T01:10:25;15.40;82.70
73683;DHT22;61982;48.548;12.182;2022-07-12T01:12:53;15.40;82.80
73683;DHT22;61982;48.548;12.182;2022-07-12T01:15:22;15.40;82.80
73683;DHT22;61982;48.548;12.182;2022-07-12T01:17:50;15.40;83.00
73683;DHT22;61982;48.548;12.182;2022-07-12T01:20:17;15.40;83.20
73683;DHT22;61982;48.548;12.182;2022-07-12T01:22:56;15.40;83.00
73683;DHT22;61982;48.548;12.182;2022-07-12T01:25:27;15.30;83.20
73683;DHT22;61982;48.548;12.182;2022-07-12T01:27:54;15.30;83.20
73683;DHT22;61982;48.548;12.182;2022-07-12T01:30:22;15.20;83.00
73683;DHT22;61982;48.548;12.182;2022-07-12T01:32:50;15.20;83.00
73683;DHT22;61982;48.548;12.182;2022-07-12T01:35:18;15.20;83.10
73683;DHT22;61982;48.548;12.182;2022-07-12T01:37:46;15.10;83.30
73683;DHT22;61982;48.548;12.182;2022-07-12T01:40:15;15.10;83.40
73683;DHT22;61982;48.548;12.182;2022-07-12T01:42:43;15.10;83.40
73683;DHT22;61982;48.548;12.182;2022-07-12T01:45:11;15.10;84.30
73683;DHT22;61982;48.548;12.182;2022-07-12T01:47:39;15.00;83.30
73683;DHT22;61982;48.548;12.182;2022-07-12T01:50:08;15.00;83.40
73683;DHT22;61982;48.548;12.182;2022-07-12T01:52:38;15.00;83.40
73683;DHT22;61982;48.548;12.182;2022-07-12T01:55:06;14.90;83.40
73683;DHT22;61982;48.548;12.182;2022-07-12T01:57:34;14.90;83.80
73683;DHT22;61982;48.548;12.182;2022-07-12T02:00:04;14.80;83.80
73683;DHT22;61982;48.548;12.182;2022-07-12T02:02:32;14.80;83.90
73683;DHT22;61982;48.548;12.182;2022-07-12T02:05:01;14.70;83.60
73683;DHT22;61982;48.548;12.182;2022-07-12T02:07:29;14.60;83.80
73683;DHT22;61982;48.548;12.182;2022-07-12T02:09:56;14.60;84.00
73683;DHT22;61982;48.548;12.182;2022-07-12T02:12:24;14.50;84.20
73683;DHT22;61982;48.548;12.182;2022-07-12T02:14:52;14.50;84.60
73683;DHT22;61982;48.548;12.182;2022-07-12T02:17:19;14.50;84.80
73683;DHT22;61982;48.548;12.182;2022-07-12T02:19:47;14.40;84.80
73683;DHT22;61982;48.548;12.182;2022-07-12T02:22:15;14.40;84.80
73683;DHT22;61982;48.548;12.182;2022-07-12T02:24:42;14.40;84.90
73683;DHT22;61982;48.548;12.182;2022-07-12T02:27:10;14.40;85.00
73683;DHT22;61982;48.548;12.182;2022-07-12T02:29:37;14.30;85.10
73683;DHT22;61982;48.548;12.182;2022-07-12T02:32:05;14.30;85.40
73683;DHT22;61982;48.548;12.182;2022-07-12T02:34:32;14.30;85.20
73683;DHT22;61982;48.548;12.182;2022-07-12T02:37:00;14.30;85.10
73683;DHT22;61982;48.548;12.182;2022-07-12T02:39:28;14.30;85.20
73683;DHT22;61982;48.548;12.182;2022-07-12T02:41:55;14.30;85.10
73683;DHT22;61982;48.548;12.182;2022-07-12T02:44:23;14.20;85.50
73683;DHT22;61982;48.548;12.182;2022-07-12T02:46:51;14.20;85.80
73683;DHT22;61982;48.548;12.182;2022-07-12T02:49:18;14.20;86.00
73683;DHT22;61982;48.548;12.182;2022-07-12T02:51:46;14.20;85.90
73683;DHT22;61982;48.548;12.182;2022-07-12T02:54:13;14.20;85.70
73683;DHT22;61982;48.548;12.182;2022-07-12T02:56:41;14.20;85.70
73683;DHT22;61982;48.548;12.182;2022-07-12T02:59:08;14.30;85.60
73683;DHT22;61982;48.548;12.182;2022-07-12T03:01:36;14.30;85.10
73683;DHT22;61982;48.548;12.182;2022-07-12T03:04:03;14.30;85.30
73683;DHT22;61982;48.548;12.182;2022-07-12T03:06:31;14.40;84.90
73683;DHT22;61982;48.548;12.182;2022-07-12T03:08:58;14.40;84.30
73683;DHT22;61982;48.548;12.182;2022-07-12T03:11:26;14.50;84.40
73683;DHT22;61982;48.548;12.182;2022-07-12T03:13:53;14.50;84.70
73683;DHT22;61982;48.548;12.182;2022-07-12T03:16:21;14.50;85.30
73683;DHT22;61982;48.548;12.182;2022-07-12T03:18:48;14.50;85.30
73683;DHT22;61982;48.548;12.182;2022-07-12T03:21:16;14.50;85.30
73683;DHT22;61982;48.548;12.182;2022-07-12T03:23:44;14.40;85.00
73683;DHT22;61982;48.548;12.182;2022-07-12T03:26:12;14.40;84.50
73683;DHT22;61982;48.548;12.182;2022-07-12T03:28:39;14.30;84.50
73683;DHT22;61982;48.548;12.182;2022-07-12T03:31:07;14.30;84.90
73683;DHT22;61982;48.548;12.182;2022-07-12T03:33:34;14.30;85.00
73683;DHT22;61982;48.548;12.182;2022-07-12T03:36:02;14.30;85.10
73683;DHT22;61982;48.548;12.182;2022-07-12T03:38:31;14.30;85.20
73683;DHT22;61982;48.548;12.182;2022-07-12T03:40:59;14.20;85.20
73683;DHT22;61982;48.548;12.182;2022-07-12T03:43:27;14.20;85.20
73683;DHT22;61982;48.548;12.182;2022-07-12T03:45:55;14.20;85.20
73683;DHT22;61982;48.548;12.182;2022-07-12T03:48:22;14.20;85.30
73683;DHT22;61982;48.548;12.182;2022-07-12T03:50:50;14.20;85.60
73683;DHT22;61982;48.548;12.182;2022-07-12T03:53:17;14.20;85.70
73683;DHT22;61982;48.548;12.182;2022-07-12T03:55:45;14.20;85.60
73683;DHT22;61982;48.548;12.182;2022-07-12T03:58:12;14.20;85.50
73683;DHT22;61982;48.548;12.182;2022-07-12T04:00:40;14.20;85.80
73683;DHT22;61982;48.548;12.182;2022-07-12T04:03:10;14.10;85.50
73683;DHT22;61982;48.548;12.182;2022-07-12T04:05:38;14.10;85.50
73683;DHT22;61982;48.548;12.182;2022-07-12T04:08:06;14.10;85.60
73683;DHT22;61982;48.548;12.182;2022-07-12T04:10:33;14.10;85.70
73683;DHT22;61982;48.548;12.182;2022-07-12T04:13:01;14.10;85.70
73683;DHT22;61982;48.548;12.182;2022-07-12T04:15:28;14.20;85.70
73683;DHT22;61982;48.548;12.182;2022-07-12T04:17:56;14.20;85.80
73683;DHT22;61982;48.548;12.182;2022-07-12T04:20:23;14.20;85.70
73683;DHT22;61982;48.548;12.182;2022-07-12T04:22:51;14.30;85.50
73683;DHT22;61982;48.548;12.182;2022-07-12T04:25:18;14.30;85.30
73683;DHT22;61982;48.548;12.182;2022-07-12T04:27:46;14.30;85.50
73683;DHT22;61982;48.548;12.182;2022-07-12T04:30:13;14.40;85.60
73683;DHT22;61982;48.548;12.182;2022-07-12T04:32:41;14.40;85.80
73683;DHT22;61982;48.548;12.182;2022-07-12T04:35:09;14.40;85.30
73683;DHT22;61982;48.548;12.182;2022-07-12T04:37:36;14.40;85.80
73683;DHT22;61982;48.548;12.182;2022-07-12T04:40:04;14.40;85.30
73683;DHT22;61982;48.548;12.182;2022-07-12T04:42:32;14.40;85.00
73683;DHT22;61982;48.548;12.182;2022-07-12T04:44:59;14.40;85.50
73683;DHT22;61982;48.548;12.182;2022-07-12T04:47:27;14.40;85.80
73683;DHT22;61982;48.548;12.182;2022-07-12T04:49:55;14.30;85.70
73683;DHT22;61982;48.548;12.182;2022-07-12T04:52:22;14.40;86.00
73683;DHT22;61982;48.548;12.182;2022-07-12T04:54:51;14.30;86.10
73683;DHT22;61982;48.548;12.182;2022-07-12T04:57:18;14.30;86.30
73683;DHT22;61982;48.548;12.182;2022-07-12T04:59:46;14.30;86.60
73683;DHT22;61982;48.548;12.182;2022-07-12T05:02:13;14.30;86.80
73683;DHT22;61982;48.548;12.182;2022-07-12T05:04:41;14.30;86.80
73683;DHT22;61982;48.548;12.182;2022-07-12T05:07:09;14.40;86.90
73683;DHT22;61982;48.548;12.182;2022-07-12T05:09:36;14.40;86.80
73683;DHT22;61982;48.548;12.182;2022-07-12T05:12:05;14.40;87.00
73683;DHT22;61982;48.548;12.182;2022-07-12T05:14:32;14.40;87.00
73683;DHT22;61982;48.548;12.182;2022-07-12T05:17:00;14.40;87.10
73683;DHT22;61982;48.548;12.182;2022-07-12T05:19:28;14.50;87.00
73683;DHT22;61982;48.548;12.182;2022-07-12T05:21:55;14.50;86.90
73683;DHT22;61982;48.548;12.182;2022-07-12T05:24:23;14.60;86.90
73683;DHT22;61982;48.548;12.182;2022-07-12T05:26:50;14.60;86.60
73683;DHT22;61982;48.548;12.182;2022-07-12T05:29:18;14.70;86.90
73683;DHT22;61982;48.548;12.182;2022-07-12T05:31:45;14.70;87.00
73683;DHT22;61982;48.548;12.182;2022-07-12T05:34:13;14.70;87.10
73683;DHT22;61982;48.548;12.182;2022-07-12T05:36:41;14.80;87.20
73683;DHT22;61982;48.548;12.182;2022-07-12T05:39:08;14.80;87.00
73683;DHT22;61982;48.548;12.182;2022-07-12T05:41:36;14.80;86.80
73683;DHT22;61982;48.548;12.182;2022-07-12T05:44:04;14.80;86.80
73683;DHT22;61982;48.548;12.182;2022-07-12T05:46:31;14.90;86.50
73683;DHT22;61982;48.548;12.182;2022-07-12T05:48:59;14.90;86.50
73683;DHT22;61982;48.548;12.182;2022-07-12T05:51:26;14.90;86.20
73683;DHT22;61982;48.548;12.182;2022-07-12T05:54:12;14.90;85.80
73683;DHT22;61982;48.548;12.182;2022-07-12T05:56:39;14.90;86.30
73683;DHT22;61982;48.548;12.182;2022-07-12T05:59:07;14.90;86.20
73683;DHT22;61982;48.548;12.182;2022-07-12T06:01:34;14.90;85.90
73683;DHT22;61982;48.548;12.182;2022-07-12T06:04:02;14.90;86.70
73683;DHT22;61982;48.548;12.182;2022-07-12T06:06:29;15.00;85.70
73683;DHT22;61982;48.548;12.182;2022-07-12T06:08:57;15.00;85.60
73683;DHT22;61982;48.548;12.182;2022-07-12T06:11:24;15.00;85.30
73683;DHT22;61982;48.548;12.182;2022-07-12T06:13:52;15.00;85.60
73683;DHT22;61982;48.548;12.182;2022-07-12T06:16:20;15.00;85.60
73683;DHT22;61982;48.548;12.182;2022-07-12T06:18:47;15.10;85.50
73683;DHT22;61982;48.548;12.182;2022-07-12T06:21:15;15.10;85.80
73683;DHT22;61982;48.548;12.182;2022-07-12T06:23:42;15.10;86.00
73683;DHT22;61982;48.548;12.182;2022-07-12T06:26:10;15.10;86.00
73683;DHT22;61982;48.548;12.182;2022-07-12T06:28:37;15.10;86.10
73683;DHT22;61982;48.548;12.182;2022-07-12T06:31:05;15.20;86.00
73683;DHT22;61982;48.548;12.182;2022-07-12T06:33:32;15.20;86.10
73683;DHT22;61982;48.548;12.182;2022-07-12T06:36:01;15.20;85.30
73683;DHT22;61982;48.548;12.182;2022-07-12T06:38:28;15.30;85.40
73683;DHT22;61982;48.548;12.182;2022-07-12T06:40:55;15.30;85.50
73683;DHT22;61982;48.548;12.182;2022-07-12T06:43:23;15.40;85.20
73683;DHT22;61982;48.548;12.182;2022-07-12T06:45:52;15.40;85.10
73683;DHT22;61982;48.548;12.182;2022-07-12T06:48:20;15.40;85.40
73683;DHT22;61982;48.548;12.182;2022-07-12T06:50:47;15.50;84.80
73683;DHT22;61982;48.548;12.182;2022-07-12T06:53:15;15.50;84.40
73683;DHT22;61982;48.548;12.182;2022-07-12T06:55:45;15.60;83.80
73683;DHT22;61982;48.548;12.182;2022-07-12T06:58:13;15.60;83.70
73683;DHT22;61982;48.548;12.182;2022-07-12T07:00:40;15.70;83.70
73683;DHT22;61982;48.548;12.182;2022-07-12T07:03:08;15.70;83.40
73683;DHT22;61982;48.548;12.182;2022-07-12T07:05:37;15.80;83.50
73683;DHT22;61982;48.548;12.182;2022-07-12T07:08:05;15.90;83.40
73683;DHT22;61982;48.548;12.182;2022-07-12T07:10:32;15.90;82.90
73683;DHT22;61982;48.548;12.182;2022-07-12T07:13:00;15.90;82.50
73683;DHT22;61982;48.548;12.182;2022-07-12T07:15:27;15.90;81.50
73683;DHT22;61982;48.548;12.182;2022-07-12T07:17:55;16.00;82.40
73683;DHT22;61982;48.548;12.182;2022-07-12T07:20:23;16.00;83.00
73683;DHT22;61982;48.548;12.182;2022-07-12T07:22:51;16.20;80.80
73683;DHT22;61982;48.548;12.182;2022-07-12T07:25:19;16.30;79.20
73683;DHT22;61982;48.548;12.182;2022-07-12T07:27:46;16.60;78.40
73683;DHT22;61982;48.548;12.182;2022-07-12T07:30:14;16.80;76.90
73683;DHT22;61982;48.548;12.182;2022-07-12T07:32:59;16.90;76.30
73683;DHT22;61982;48.548;12.182;2022-07-12T07:35:27;17.10;73.40
73683;DHT22;61982;48.548;12.182;2022-07-12T07:37:54;17.30;72.50
73683;DHT22;61982;48.548;12.182;2022-07-12T07:40:22;17.50;72.60
73683;DHT22;61982;48.548;12.182;2022-07-12T07:42:49;17.60;73.30
73683;DHT22;61982;48.548;12.182;2022-07-12T07:45:17;17.60;72.90
73683;DHT22;61982;48.548;12.182;2022-07-12T07:47:49;17.50;72.50
73683;DHT22;61982;48.548;12.182;2022-07-12T07:50:16;17.50;72.10
73683;DHT22;61982;48.548;12.182;2022-07-12T07:52:44;17.50;72.70
73683;DHT22;61982;48.548;12.182;2022-07-12T07:55:12;17.50;74.20
73683;DHT22;61982;48.548;12.182;2022-07-12T07:57:39;17.60;74.60
73683;DHT22;61982;48.548;12.182;2022-07-12T08:00:07;17.80;74.60
73683;DHT22;61982;48.548;12.182;2022-07-12T08:02:35;17.80;74.10
73683;DHT22;61982;48.548;12.182;2022-07-12T08:05:03;17.80;70.80
73683;DHT22;61982;48.548;12.182;2022-07-12T08:07:31;17.70;72.50
73683;DHT22;61982;48.548;12.182;2022-07-12T08:09:58;17.60;71.50
73683;DHT22;61982;48.548;12.182;2022-07-12T08:12:26;17.50;71.20
73683;DHT22;61982;48.548;12.182;2022-07-12T08:14:53;17.60;69.70
73683;DHT22;61982;48.548;12.182;2022-07-12T08:17:21;17.60;71.00
73683;DHT22;61982;48.548;12.182;2022-07-12T08:19:48;17.70;69.20
73683;DHT22;61982;48.548;12.182;2022-07-12T08:22:16;17.70;69.20
73683;DHT22;61982;48.548;12.182;2022-07-12T08:24:43;17.70;69.70
73683;DHT22;61982;48.548;12.182;2022-07-12T08:27:11;17.80;69.70
73683;DHT22;61982;48.548;12.182;2022-07-12T08:29:38;17.90;69.60
73683;DHT22;61982;48.548;12.182;2022-07-12T08:32:07;18.10;67.50
73683;DHT22;61982;48.548;12.182;2022-07-12T08:34:34;18.20;67.70
73683;DHT22;61982;48.548;12.182;2022-07-12T08:37:02;18.30;66.70
73683;DHT22;61982;48.548;12.182;2022-07-12T08:39:30;18.50;67.80
73683;DHT22;61982;48.548;12.182;2022-07-12T08:41:57;18.70;66.90
73683;DHT22;61982;48.548;12.182;2022-07-12T08:44:25;18.80;66.40
73683;DHT22;61982;48.548;12.182;2022-07-12T08:46:52;18.80;65.10
73683;DHT22;61982;48.548;12.182;2022-07-12T08:49:20;18.80;65.00
73683;DHT22;61982;48.548;12.182;2022-07-12T08:51:48;18.70;65.60
73683;DHT22;61982;48.548;12.182;2022-07-12T08:54:15;18.60;64.90
73683;DHT22;61982;48.548;12.182;2022-07-12T08:56:44;18.50;65.30
73683;DHT22;61982;48.548;12.182;2022-07-12T08:59:18;18.40;66.10
73683;DHT22;61982;48.548;12.182;2022-07-12T09:01:53;18.40;65.30
73683;DHT22;61982;48.548;12.182;2022-07-12T09:04:27;18.40;66.10
73683;DHT22;61982;48.548;12.182;2022-07-12T09:06:55;18.50;66.40
73683;DHT22;61982;48.548;12.182;2022-07-12T09:09:31;18.50;67.40
73683;DHT22;61982;48.548;12.182;2022-07-12T09:11:58;18.60;66.60
73683;DHT22;61982;48.548;12.182;2022-07-12T09:14:26;18.60;65.30
73683;DHT22;61982;48.548;12.182;2022-07-12T09:17:03;18.70;65.40
73683;DHT22;61982;48.548;12.182;2022-07-12T09:19:32;18.80;65.00
73683;DHT22;61982;48.548;12.182;2022-07-12T09:22:00;18.90;64.50
73683;DHT22;61982;48.548;12.182;2022-07-12T09:24:28;18.90;65.70
73683;DHT22;61982;48.548;12.182;2022-07-12T09:27:03;18.90;64.30
73683;DHT22;61982;48.548;12.182;2022-07-12T09:29:32;19.00;62.50
73683;DHT22;61982;48.548;12.182;2022-07-12T09:32:08;19.00;60.50
73683;DHT22;61982;48.548;12.182;2022-07-12T09:34:58;19.10;60.70
73683;DHT22;61982;48.548;12.182;2022-07-12T09:37:44;19.20;63.50
73683;DHT22;61982;48.548;12.182;2022-07-12T09:40:12;19.40;64.10
73683;DHT22;61982;48.548;12.182;2022-07-12T09:42:40;19.60;62.80
73683;DHT22;61982;48.548;12.182;2022-07-12T09:45:09;19.80;58.00
73683;DHT22;61982;48.548;12.182;2022-07-12T09:47:37;19.90;58.90
73683;DHT22;61982;48.548;12.182;2022-07-12T09:50:06;19.90;58.00
73683;DHT22;61982;48.548;12.182;2022-07-12T09:52:37;20.00;58.20
73683;DHT22;61982;48.548;12.182;2022-07-12T09:55:09;20.10;57.80
73683;DHT22;61982;48.548;12.182;2022-07-12T09:57:39;20.20;62.00
73683;DHT22;61982;48.548;12.182;2022-07-12T10:00:09;20.30;58.40
73683;DHT22;61982;48.548;12.182;2022-07-12T10:02:39;20.20;57.20
73683;DHT22;61982;48.548;12.182;2022-07-12T10:05:08;20.10;57.10
73683;DHT22;61982;48.548;12.182;2022-07-12T10:07:38;20.00;56.10
73683;DHT22;61982;48.548;12.182;2022-07-12T10:10:06;20.00;55.80
73683;DHT22;61982;48.548;12.182;2022-07-12T10:12:34;20.00;57.30
73683;DHT22;61982;48.548;12.182;2022-07-12T10:15:16;20.10;55.70
73683;DHT22;61982;48.548;12.182;2022-07-12T10:17:51;20.20;55.10
73683;DHT22;61982;48.548;12.182;2022-07-12T10:20:20;20.40;56.70
73683;DHT22;61982;48.548;12.182;2022-07-12T10:22:55;20.60;55.70
73683;DHT22;61982;48.548;12.182;2022-07-12T10:25:28;20.70;54.10
73683;DHT22;61982;48.548;12.182;2022-07-12T10:27:57;20.80;55.20
73683;DHT22;61982;48.548;12.182;2022-07-12T10:30:25;20.90;54.10
73683;DHT22;61982;48.548;12.182;2022-07-12T10:32:54;21.00;54.10
73683;DHT22;61982;48.548;12.182;2022-07-12T10:35:30;20.90;54.20
73683;DHT22;61982;48.548;12.182;2022-07-12T10:38:15;20.80;54.50
73683;DHT22;61982;48.548;12.182;2022-07-12T10:40:45;20.70;54.00
73683;DHT22;61982;48.548;12.182;2022-07-12T10:43:15;20.70;55.90
73683;DHT22;61982;48.548;12.182;2022-07-12T10:45:44;20.90;52.60
73683;DHT22;61982;48.548;12.182;2022-07-12T10:53:35;21.10;53.30
73683;DHT22;61982;48.548;12.182;2022-07-12T10:56:15;21.20;52.50
73683;DHT22;61982;48.548;12.182;2022-07-12T10:58:50;21.20;52.30
73683;DHT22;61982;48.548;12.182;2022-07-12T11:01:23;21.30;52.80
73683;DHT22;61982;48.548;12.182;2022-07-12T11:04:02;21.30;52.20
73683;DHT22;61982;48.548;12.182;2022-07-12T11:06:26;21.20;50.50
73683;DHT22;61982;48.548;12.182;2022-07-12T11:08:59;21.10;46.20
73683;DHT22;61982;48.548;12.182;2022-07-12T11:11:31;21.00;47.00
73683;DHT22;61982;48.548;12.182;2022-07-12T11:13:55;21.00;49.20
73683;DHT22;61982;48.548;12.182;2022-07-12T11:16:24;21.00;48.00
73683;DHT22;61982;48.548;12.182;2022-07-12T11:18:52;21.20;47.50
73683;DHT22;61982;48.548;12.182;2022-07-12T11:21:21;21.50;50.30
73683;DHT22;61982;48.548;12.182;2022-07-12T11:23:49;21.70;49.50
73683;DHT22;61982;48.548;12.182;2022-07-12T11:26:17;21.80;48.20
73683;DHT22;61982;48.548;12.182;2022-07-12T11:28:45;21.90;49.10
73683;DHT22;61982;48.548;12.182;2022-07-12T11:31:16;21.90;51.60
73683;DHT22;61982;48.548;12.182;2022-07-12T11:33:46;21.90;50.20
73683;DHT22;61982;48.548;12.182;2022-07-12T11:36:14;21.90;49.00
73683;DHT22;61982;48.548;12.182;2022-07-12T11:38:44;22.10;49.10
73683;DHT22;61982;48.548;12.182;2022-07-12T11:41:13;22.20;49.30
73683;DHT22;61982;48.548;12.182;2022-07-12T11:43:42;22.30;56.20
73683;DHT22;61982;48.548;12.182;2022-07-12T11:46:10;22.50;48.60
73683;DHT22;61982;48.548;12.182;2022-07-12T11:48:41;22.50;47.10
73683;DHT22;61982;48.548;12.182;2022-07-12T11:51:10;22.40;47.70
73683;DHT22;61982;48.548;12.182;2022-07-12T11:53:40;22.10;47.70
73683;DHT22;61982;48.548;12.182;2022-07-12T11:56:09;21.90;48.90
73683;DHT22;61982;48.548;12.182;2022-07-12T11:58:37;21.70;46.40
73683;DHT22;61982;48.548;12.182;2022-07-12T12:01:09;21.60;54.10
73683;DHT22;61982;48.548;12.182;2022-07-12T12:03:42;21.60;48.50
73683;DHT22;61982;48.548;12.182;2022-07-12T12:06:10;21.60;47.10
73683;DHT22;61982;48.548;12.182;2022-07-12T12:08:38;21.70;50.00
73683;DHT22;61982;48.548;12.182;2022-07-12T12:11:06;21.80;46.70
73683;DHT22;61982;48.548;12.182;2022-07-12T12:13:33;21.80;47.00
73683;DHT22;61982;48.548;12.182;2022-07-12T12:16:02;21.80;46.60
73683;DHT22;61982;48.548;12.182;2022-07-12T12:18:40;21.80;48.70
73683;DHT22;61982;48.548;12.182;2022-07-12T12:21:12;21.60;49.00
73683;DHT22;61982;48.548;12.182;2022-07-12T12:23:41;21.60;47.80
73683;DHT22;61982;48.548;12.182;2022-07-12T12:28:48;22.00;45.60
73683;DHT22;61982;48.548;12.182;2022-07-12T12:31:14;22.30;47.90
73683;DHT22;61982;48.548;12.182;2022-07-12T12:33:45;22.50;47.00
73683;DHT22;61982;48.548;12.182;2022-07-12T12:36:14;22.50;47.00
73683;DHT22;61982;48.548;12.182;2022-07-12T12:38:43;22.50;45.80
73683;DHT22;61982;48.548;12.182;2022-07-12T12:41:11;22.60;46.70
73683;DHT22;61982;48.548;12.182;2022-07-12T12:43:40;22.70;47.10
73683;DHT22;61982;48.548;12.182;2022-07-12T12:46:08;22.70;46.00
73683;DHT22;61982;48.548;12.182;2022-07-12T12:48:36;22.80;49.40
73683;DHT22;61982;48.548;12.182;2022-07-12T12:53:35;22.90;48.10
73683;DHT22;61982;48.548;12.182;2022-07-12T12:56:07;22.90;46.50
73683;DHT22;61982;48.548;12.182;2022-07-12T12:58:35;23.10;43.70
73683;DHT22;61982;48.548;12.182;2022-07-12T13:01:04;23.40;44.90
73683;DHT22;61982;48.548;12.182;2022-07-12T13:03:32;23.80;44.70
73683;DHT22;61982;48.548;12.182;2022-07-12T13:06:00;24.30;43.70
73683;DHT22;61982;48.548;12.182;2022-07-12T13:08:28;24.60;43.40
73683;DHT22;61982;48.548;12.182;2022-07-12T13:10:56;25.10;42.90
73683;DHT22;61982;48.548;12.182;2022-07-12T13:13:41;27.20;44.40
73683;DHT22;61982;48.548;12.182;2022-07-12T13:16:09;28.50;39.60
73683;DHT22;61982;48.548;12.182;2022-07-12T13:18:36;29.00;35.20
73683;DHT22;61982;48.548;12.182;2022-07-12T13:21:04;28.30;34.40
73683;DHT22;61982;48.548;12.182;2022-07-12T13:23:31;27.80;37.70
73683;DHT22;61982;48.548;12.182;2022-07-12T13:25:59;28.90;36.90
73683;DHT22;61982;48.548;12.182;2022-07-12T13:28:27;29.30;34.50
73683;DHT22;61982;48.548;12.182;2022-07-12T13:30:55;29.20;33.80
73683;DHT22;61982;48.548;12.182;2022-07-12T13:33:22;28.70;33.50
73683;DHT22;61982;48.548;12.182;2022-07-12T13:35:50;28.50;33.60
73683;DHT22;61982;48.548;12.182;2022-07-12T13:38:18;28.50;34.30
73683;DHT22;61982;48.548;12.182;2022-07-12T13:40:46;28.70;34.60
73683;DHT22;61982;48.548;12.182;2022-07-12T13:43:14;29.00;37.90
73683;DHT22;61982;48.548;12.182;2022-07-12T13:45:41;29.00;32.70
73683;DHT22;61982;48.548;12.182;2022-07-12T13:48:12;28.90;36.30
73683;DHT22;61982;48.548;12.182;2022-07-12T13:50:39;28.60;38.30
73683;DHT22;61982;48.548;12.182;2022-07-12T13:53:07;28.30;36.30
73683;DHT22;61982;48.548;12.182;2022-07-12T13:55:34;28.10;35.90
73683;DHT22;61982;48.548;12.182;2022-07-12T13:58:04;27.80;36.80
73683;DHT22;61982;48.548;12.182;2022-07-12T14:00:32;27.70;35.80
73683;DHT22;61982;48.548;12.182;2022-07-12T14:02:59;27.50;36.90
73683;DHT22;61982;48.548;12.182;2022-07-12T14:05:27;27.30;36.00
73683;DHT22;61982;48.548;12.182;2022-07-12T14:07:56;27.20;36.10
73683;DHT22;61982;48.548;12.182;2022-07-12T14:10:23;26.90;38.30
73683;DHT22;61982;48.548;12.182;2022-07-12T14:12:52;26.60;36.70
73683;DHT22;61982;48.548;12.182;2022-07-12T14:15:20;26.40;38.40
73683;DHT22;61982;48.548;12.182;2022-07-12T14:18:04;26.20;38.80
73683;DHT22;61982;48.548;12.182;2022-07-12T14:20:35;26.20;37.50
73683;DHT22;61982;48.548;12.182;2022-07-12T14:23:03;26.10;40.80
73683;DHT22;61982;48.548;12.182;2022-07-12T14:25:33;26.00;40.10
73683;DHT22;61982;48.548;12.182;2022-07-12T14:28:00;25.90;42.60
73683;DHT22;61982;48.548;12.182;2022-07-12T14:30:28;25.90;40.30
73683;DHT22;61982;48.548;12.182;2022-07-12T14:32:55;26.00;42.10
73683;DHT22;61982;48.548;12.182;2022-07-12T14:35:23;26.00;39.70
73683;DHT22;61982;48.548;12.182;2022-07-12T14:37:51;26.00;40.10
73683;DHT22;61982;48.548;12.182;2022-07-12T14:40:18;25.80;39.40
73683;DHT22;61982;48.548;12.182;2022-07-12T14:42:46;25.80;42.50
73683;DHT22;61982;48.548;12.182;2022-07-12T14:45:13;25.70;40.60
73683;DHT22;61982;48.548;12.182;2022-07-12T14:47:41;25.80;39.60
73683;DHT22;61982;48.548;12.182;2022-07-12T14:50:09;25.80;42.00
73683;DHT22;61982;48.548;12.182;2022-07-12T14:52:37;25.70;41.20
73683;DHT22;61982;48.548;12.182;2022-07-12T14:55:05;25.50;39.70
73683;DHT22;61982;48.548;12.182;2022-07-12T14:57:32;25.30;41.00
73683;DHT22;61982;48.548;12.182;2022-07-12T15:00:00;25.10;41.40
73683;DHT22;61982;48.548;12.182;2022-07-12T15:02:28;25.00;40.70
73683;DHT22;61982;48.548;12.182;2022-07-12T15:04:55;24.80;43.00
73683;DHT22;61982;48.548;12.182;2022-07-12T15:07:23;24.70;43.30
73683;DHT22;61982;48.548;12.182;2022-07-12T15:09:50;24.50;43.40
73683;DHT22;61982;48.548;12.182;2022-07-12T15:12:18;24.50;44.90
73683;DHT22;61982;48.548;12.182;2022-07-12T15:14:45;24.50;42.10
73683;DHT22;61982;48.548;12.182;2022-07-12T15:17:13;24.50;43.00
73683;DHT22;61982;48.548;12.182;2022-07-12T15:19:42;24.50;45.60
73683;DHT22;61982;48.548;12.182;2022-07-12T15:22:10;24.50;46.40
73683;DHT22;61982;48.548;12.182;2022-07-12T15:24:39;24.70;43.80
73683;DHT22;61982;48.548;12.182;2022-07-12T15:27:07;24.90;45.80
73683;DHT22;61982;48.548;12.182;2022-07-12T15:29:39;25.00;42.90
73683;DHT22;61982;48.548;12.182;2022-07-12T15:32:08;25.10;42.90
73683;DHT22;61982;48.548;12.182;2022-07-12T15:34:36;25.20;41.80